Terminal Aerodrome Forecast
Issued by NWS Missoula, MT

Home | Current Version | Previous Version | Text Only | Print | Product List | Glossary On
Versions: 1 2 3 4 5 6 7 8 9 10 11 12 13 14 15 16 17 18 19 20 21 22 23
000
FTUS45 KMSO 230520
TAFGPI
TAF
KGPI 230520Z 2306/2406 VRB03KT 4SM BR VCFG BKN003 BKN060
     FM230700 02007KT 6SM BR VCSH FEW003 SCT040 BKN050
     FM230900 02005KT 2SM -SN BKN030 OVC040
     FM231300 02005KT 4SM -SN BKN030 OVC040
     FM231600 02007KT P6SM VCSH BKN040 OVC050=

USA.gov is the U.S. government's official web portal to all federal, state and local government web resources and services.